Terminal Aerodrome Forecast
Issued by NWS Tampa Bay Area, FL

Home | Current Version | Previous Version | Text Only | Print | Product List | Glossary On
Versions: 1 2 3 4 5 6 7 8 9 10 11 12 13 14
000
FTUS42 KTBW 222323
TAFSRQ
TAF
KSRQ 222323Z 2300/2324 05007KT P6SM FEW050 SCT250
     FM230200 06004KT P6SM SCT250
     FM231400 06006KT P6SM FEW025 SCT250
     FM231700 33009KT P6SM VCTS SCT045CB SCT100=

USA.gov is the U.S. government's official web portal to all federal, state and local government web resources and services.